sensor_id;sensor_type;location;lat;lon;timestamp;P1;durP1;ratioP1;P2;durP2;ratioP2
25972;SDS011;13765;51.166;4.466;2023-07-09T00:02:07;15.15;;;6.18;;
25972;SDS011;13765;51.166;4.466;2023-07-09T00:04:35;14.68;;;5.70;;
25972;SDS011;13765;51.166;4.466;2023-07-09T00:07:02;15.10;;;6.38;;
25972;SDS011;13765;51.166;4.466;2023-07-09T00:09:29;17.95;;;6.18;;
25972;SDS011;13765;51.166;4.466;2023-07-09T00:11:55;15.38;;;5.50;;
25972;SDS011;13765;51.166;4.466;2023-07-09T00:14:21;15.82;;;5.90;;
25972;SDS011;13765;51.166;4.466;2023-07-09T00:16:49;13.80;;;5.75;;
25972;SDS011;13765;51.166;4.466;2023-07-09T00:19:16;15.77;;;5.97;;
25972;SDS011;13765;51.166;4.466;2023-07-09T00:21:49;13.55;;;5.80;;
25972;SDS011;13765;51.166;4.466;2023-07-09T00:24:20;15.20;;;5.72;;
25972;SDS011;13765;51.166;4.466;2023-07-09T00:26:52;15.98;;;6.10;;
25972;SDS011;13765;51.166;4.466;2023-07-09T00:29:17;13.50;;;5.43;;
25972;SDS011;13765;51.166;4.466;2023-07-09T00:31:45;16.00;;;6.00;;
25972;SDS011;13765;51.166;4.466;2023-07-09T00:34:12;15.43;;;5.93;;
25972;SDS011;13765;51.166;4.466;2023-07-09T00:36:40;15.02;;;5.50;;
25972;SDS011;13765;51.166;4.466;2023-07-09T00:39:18;17.05;;;6.70;;
25972;SDS011;13765;51.166;4.466;2023-07-09T00:41:45;13.88;;;5.70;;
25972;SDS011;13765;51.166;4.466;2023-07-09T00:44:31;15.88;;;5.93;;
25972;SDS011;13765;51.166;4.466;2023-07-09T00:49:32;17.95;;;6.22;;
25972;SDS011;13765;51.166;4.466;2023-07-09T00:52:02;17.00;;;6.43;;
25972;SDS011;13765;51.166;4.466;2023-07-09T00:54:39;12.60;;;5.88;;
25972;SDS011;13765;51.166;4.466;2023-07-09T00:57:13;17.80;;;6.63;;
25972;SDS011;13765;51.166;4.466;2023-07-09T00:59:42;17.08;;;6.28;;
25972;SDS011;13765;51.166;4.466;2023-07-09T01:02:13;14.75;;;6.00;;
25972;SDS011;13765;51.166;4.466;2023-07-09T01:04:39;16.30;;;6.53;;
25972;SDS011;13765;51.166;4.466;2023-07-09T01:07:06;16.80;;;6.70;;
25972;SDS011;13765;51.166;4.466;2023-07-09T01:09:32;17.35;;;6.57;;
25972;SDS011;13765;51.166;4.466;2023-07-09T01:12:01;17.98;;;6.60;;
25972;SDS011;13765;51.166;4.466;2023-07-09T01:14:30;15.45;;;6.90;;
25972;SDS011;13765;51.166;4.466;2023-07-09T01:17:01;19.13;;;6.63;;
25972;SDS011;13765;51.166;4.466;2023-07-09T01:19:40;17.50;;;6.97;;
25972;SDS011;13765;51.166;4.466;2023-07-09T01:22:11;15.02;;;6.35;;
25972;SDS011;13765;51.166;4.466;2023-07-09T01:25:02;16.77;;;6.78;;
25972;SDS011;13765;51.166;4.466;2023-07-09T01:27:42;20.10;;;6.47;;
25972;SDS011;13765;51.166;4.466;2023-07-09T01:30:16;16.48;;;6.45;;
25972;SDS011;13765;51.166;4.466;2023-07-09T01:33:00;17.15;;;6.47;;
25972;SDS011;13765;51.166;4.466;2023-07-09T01:35:27;16.17;;;6.47;;
25972;SDS011;13765;51.166;4.466;2023-07-09T01:37:55;17.90;;;6.35;;
25972;SDS011;13765;51.166;4.466;2023-07-09T01:40:22;16.50;;;7.03;;
25972;SDS011;13765;51.166;4.466;2023-07-09T01:42:50;17.77;;;6.95;;
25972;SDS011;13765;51.166;4.466;2023-07-09T01:45:17;19.50;;;7.10;;
25972;SDS011;13765;51.166;4.466;2023-07-09T01:47:44;14.45;;;6.18;;
25972;SDS011;13765;51.166;4.466;2023-07-09T01:50:10;16.17;;;6.20;;
25972;SDS011;13765;51.166;4.466;2023-07-09T01:52:37;15.52;;;6.63;;
25972;SDS011;13765;51.166;4.466;2023-07-09T01:55:08;17.27;;;6.72;;
25972;SDS011;13765;51.166;4.466;2023-07-09T01:57:38;16.73;;;6.47;;
25972;SDS011;13765;51.166;4.466;2023-07-09T02:00:07;17.95;;;7.93;;
25972;SDS011;13765;51.166;4.466;2023-07-09T02:02:38;16.95;;;7.13;;
25972;SDS011;13765;51.166;4.466;2023-07-09T02:05:08;15.82;;;6.82;;
25972;SDS011;13765;51.166;4.466;2023-07-09T02:07:34;20.00;;;6.50;;
25972;SDS011;13765;51.166;4.466;2023-07-09T02:10:02;17.30;;;7.28;;
25972;SDS011;13765;51.166;4.466;2023-07-09T02:12:29;17.75;;;7.63;;
25972;SDS011;13765;51.166;4.466;2023-07-09T02:14:54;17.35;;;7.20;;
25972;SDS011;13765;51.166;4.466;2023-07-09T02:17:20;20.95;;;7.97;;
25972;SDS011;13765;51.166;4.466;2023-07-09T02:19:45;17.70;;;7.55;;
25972;SDS011;13765;51.166;4.466;2023-07-09T02:22:11;19.35;;;8.65;;
25972;SDS011;13765;51.166;4.466;2023-07-09T02:24:37;15.95;;;7.50;;
25972;SDS011;13765;51.166;4.466;2023-07-09T02:27:04;22.73;;;8.32;;
25972;SDS011;13765;51.166;4.466;2023-07-09T02:29:32;19.05;;;8.35;;
25972;SDS011;13765;51.166;4.466;2023-07-09T02:31:59;18.10;;;7.28;;
25972;SDS011;13765;51.166;4.466;2023-07-09T02:34:28;19.27;;;7.32;;
25972;SDS011;13765;51.166;4.466;2023-07-09T02:36:55;19.52;;;8.07;;
25972;SDS011;13765;51.166;4.466;2023-07-09T02:39:24;17.52;;;7.97;;
25972;SDS011;13765;51.166;4.466;2023-07-09T02:41:49;17.88;;;8.50;;
25972;SDS011;13765;51.166;4.466;2023-07-09T02:44:15;17.75;;;7.63;;
25972;SDS011;13765;51.166;4.466;2023-07-09T02:46:41;19.90;;;7.68;;
25972;SDS011;13765;51.166;4.466;2023-07-09T02:49:11;16.60;;;7.43;;
25972;SDS011;13765;51.166;4.466;2023-07-09T02:51:39;19.92;;;7.32;;
25972;SDS011;13765;51.166;4.466;2023-07-09T02:54:05;21.98;;;7.47;;
25972;SDS011;13765;51.166;4.466;2023-07-09T02:56:31;20.67;;;8.18;;
25972;SDS011;13765;51.166;4.466;2023-07-09T02:59:00;20.70;;;8.70;;
25972;SDS011;13765;51.166;4.466;2023-07-09T03:01:25;21.75;;;8.48;;
25972;SDS011;13765;51.166;4.466;2023-07-09T03:03:52;19.00;;;7.57;;
25972;SDS011;13765;51.166;4.466;2023-07-09T03:06:22;21.77;;;7.55;;
25972;SDS011;13765;51.166;4.466;2023-07-09T03:08:49;19.05;;;7.95;;
25972;SDS011;13765;51.166;4.466;2023-07-09T03:11:16;20.90;;;7.70;;
25972;SDS011;13765;51.166;4.466;2023-07-09T03:13:45;16.77;;;7.40;;
25972;SDS011;13765;51.166;4.466;2023-07-09T03:16:14;18.73;;;8.20;;
25972;SDS011;13765;51.166;4.466;2023-07-09T03:18:40;17.88;;;7.68;;
25972;SDS011;13765;51.166;4.466;2023-07-09T03:21:06;17.83;;;7.15;;
25972;SDS011;13765;51.166;4.466;2023-07-09T03:23:32;17.95;;;7.90;;
25972;SDS011;13765;51.166;4.466;2023-07-09T03:25:57;17.42;;;7.57;;
25972;SDS011;13765;51.166;4.466;2023-07-09T03:28:25;15.95;;;6.78;;
25972;SDS011;13765;51.166;4.466;2023-07-09T03:30:52;19.98;;;8.20;;
25972;SDS011;13765;51.166;4.466;2023-07-09T03:33:20;18.77;;;8.10;;
25972;SDS011;13765;51.166;4.466;2023-07-09T03:35:48;17.65;;;7.75;;
25972;SDS011;13765;51.166;4.466;2023-07-09T03:38:15;20.77;;;7.72;;
25972;SDS011;13765;51.166;4.466;2023-07-09T03:40:43;19.98;;;8.57;;
25972;SDS011;13765;51.166;4.466;2023-07-09T03:43:09;21.73;;;8.23;;
25972;SDS011;13765;51.166;4.466;2023-07-09T03:45:36;19.13;;;8.10;;
25972;SDS011;13765;51.166;4.466;2023-07-09T03:48:03;18.23;;;7.45;;
25972;SDS011;13765;51.166;4.466;2023-07-09T03:50:29;18.23;;;7.63;;
25972;SDS011;13765;51.166;4.466;2023-07-09T03:52:58;19.42;;;7.80;;
25972;SDS011;13765;51.166;4.466;2023-07-09T03:55:23;19.42;;;7.40;;
25972;SDS011;13765;51.166;4.466;2023-07-09T03:57:51;18.77;;;7.28;;
25972;SDS011;13765;51.166;4.466;2023-07-09T04:00:21;16.08;;;6.60;;
25972;SDS011;13765;51.166;4.466;2023-07-09T04:02:47;19.30;;;7.32;;
25972;SDS011;13765;51.166;4.466;2023-07-09T04:05:12;17.50;;;7.28;;
25972;SDS011;13765;51.166;4.466;2023-07-09T04:07:39;16.10;;;7.10;;
25972;SDS011;13765;51.166;4.466;2023-07-09T04:10:05;15.48;;;6.38;;
25972;SDS011;13765;51.166;4.466;2023-07-09T04:12:31;18.33;;;7.25;;
25972;SDS011;13765;51.166;4.466;2023-07-09T04:14:57;18.92;;;7.75;;
25972;SDS011;13765;51.166;4.466;2023-07-09T04:17:22;17.90;;;7.10;;
25972;SDS011;13765;51.166;4.466;2023-07-09T04:19:49;18.73;;;7.95;;
25972;SDS011;13765;51.166;4.466;2023-07-09T04:22:17;18.30;;;6.57;;
25972;SDS011;13765;51.166;4.466;2023-07-09T04:24:44;17.23;;;7.68;;
25972;SDS011;13765;51.166;4.466;2023-07-09T04:27:10;17.77;;;7.30;;
25972;SDS011;13765;51.166;4.466;2023-07-09T04:29:38;17.83;;;7.38;;
25972;SDS011;13765;51.166;4.466;2023-07-09T04:32:05;20.90;;;8.07;;
25972;SDS011;13765;51.166;4.466;2023-07-09T04:34:32;18.58;;;7.68;;
25972;SDS011;13765;51.166;4.466;2023-07-09T04:37:00;20.40;;;8.63;;
25972;SDS011;13765;51.166;4.466;2023-07-09T04:39:26;18.23;;;7.45;;
25972;SDS011;13765;51.166;4.466;2023-07-09T04:41:51;14.93;;;6.63;;
25972;SDS011;13765;51.166;4.466;2023-07-09T04:44:21;15.90;;;7.00;;
25972;SDS011;13765;51.166;4.466;2023-07-09T04:46:47;17.73;;;7.28;;
25972;SDS011;13765;51.166;4.466;2023-07-09T04:49:14;19.35;;;7.07;;
25972;SDS011;13765;51.166;4.466;2023-07-09T04:51:40;18.05;;;7.55;;
25972;SDS011;13765;51.166;4.466;2023-07-09T04:54:05;17.67;;;7.35;;
25972;SDS011;13765;51.166;4.466;2023-07-09T04:56:31;17.73;;;7.50;;
25972;SDS011;13765;51.166;4.466;2023-07-09T04:59:01;17.42;;;7.47;;
25972;SDS011;13765;51.166;4.466;2023-07-09T05:01:27;19.98;;;8.13;;
25972;SDS011;13765;51.166;4.466;2023-07-09T05:03:52;17.77;;;7.95;;
25972;SDS011;13765;51.166;4.466;2023-07-09T05:06:19;16.08;;;7.03;;
25972;SDS011;13765;51.166;4.466;2023-07-09T05:08:45;17.75;;;7.18;;
25972;SDS011;13765;51.166;4.466;2023-07-09T05:11:13;18.60;;;7.32;;
25972;SDS011;13765;51.166;4.466;2023-07-09T05:13:40;19.75;;;7.32;;
25972;SDS011;13765;51.166;4.466;2023-07-09T05:16:06;15.80;;;6.75;;
25972;SDS011;13765;51.166;4.466;2023-07-09T05:18:32;20.42;;;6.78;;
25972;SDS011;13765;51.166;4.466;2023-07-09T05:20:57;15.35;;;6.82;;
25972;SDS011;13765;51.166;4.466;2023-07-09T05:23:26;17.92;;;7.03;;
25972;SDS011;13765;51.166;4.466;2023-07-09T05:26:00;16.48;;;6.72;;
25972;SDS011;13765;51.166;4.466;2023-07-09T05:28:28;14.48;;;6.13;;
25972;SDS011;13765;51.166;4.466;2023-07-09T05:30:55;16.80;;;6.88;;
25972;SDS011;13765;51.166;4.466;2023-07-09T05:33:21;17.65;;;7.00;;
25972;SDS011;13765;51.166;4.466;2023-07-09T05:35:49;16.88;;;6.47;;
25972;SDS011;13765;51.166;4.466;2023-07-09T05:38:15;13.68;;;5.32;;
25972;SDS011;13765;51.166;4.466;2023-07-09T05:40:43;17.23;;;5.82;;
25972;SDS011;13765;51.166;4.466;2023-07-09T05:43:10;21.67;;;6.72;;
25972;SDS011;13765;51.166;4.466;2023-07-09T05:45:38;16.73;;;6.40;;
25972;SDS011;13765;51.166;4.466;2023-07-09T05:48:04;16.13;;;6.65;;
25972;SDS011;13765;51.166;4.466;2023-07-09T05:50:32;18.45;;;6.68;;
25972;SDS011;13765;51.166;4.466;2023-07-09T05:52:59;12.55;;;5.65;;
25972;SDS011;13765;51.166;4.466;2023-07-09T05:55:25;16.17;;;5.85;;
25972;SDS011;13765;51.166;4.466;2023-07-09T05:57:52;16.58;;;6.60;;
25972;SDS011;13765;51.166;4.466;2023-07-09T06:00:20;17.90;;;6.65;;
25972;SDS011;13765;51.166;4.466;2023-07-09T06:02:46;17.95;;;6.85;;
25972;SDS011;13765;51.166;4.466;2023-07-09T06:05:11;18.23;;;6.75;;
25972;SDS011;13765;51.166;4.466;2023-07-09T06:07:39;17.02;;;6.28;;
25972;SDS011;13765;51.166;4.466;2023-07-09T06:10:05;18.17;;;6.50;;
25972;SDS011;13765;51.166;4.466;2023-07-09T06:12:34;16.10;;;6.28;;
25972;SDS011;13765;51.166;4.466;2023-07-09T06:15:03;16.33;;;6.75;;
25972;SDS011;13765;51.166;4.466;2023-07-09T06:17:29;15.27;;;6.70;;
25972;SDS011;13765;51.166;4.466;2023-07-09T06:19:54;16.17;;;6.78;;
25972;SDS011;13765;51.166;4.466;2023-07-09T06:22:20;18.95;;;7.40;;
25972;SDS011;13765;51.166;4.466;2023-07-09T06:24:45;19.35;;;6.70;;
25972;SDS011;13765;51.166;4.466;2023-07-09T06:27:11;18.30;;;7.63;;
25972;SDS011;13765;51.166;4.466;2023-07-09T06:29:37;19.52;;;7.28;;
25972;SDS011;13765;51.166;4.466;2023-07-09T06:32:03;15.20;;;7.45;;
25972;SDS011;13765;51.166;4.466;2023-07-09T06:34:29;18.92;;;7.78;;
25972;SDS011;13765;51.166;4.466;2023-07-09T06:36:56;16.17;;;7.13;;
25972;SDS011;13765;51.166;4.466;2023-07-09T06:39:22;18.83;;;7.93;;
25972;SDS011;13765;51.166;4.466;2023-07-09T06:41:50;19.27;;;7.95;;
25972;SDS011;13765;51.166;4.466;2023-07-09T06:44:18;18.70;;;8.00;;
25972;SDS011;13765;51.166;4.466;2023-07-09T06:46:43;17.10;;;6.93;;
25972;SDS011;13765;51.166;4.466;2023-07-09T06:49:12;19.90;;;8.55;;
25972;SDS011;13765;51.166;4.466;2023-07-09T06:51:38;19.23;;;7.75;;
25972;SDS011;13765;51.166;4.466;2023-07-09T06:54:04;22.90;;;8.95;;
25972;SDS011;13765;51.166;4.466;2023-07-09T06:56:33;19.90;;;8.32;;
25972;SDS011;13765;51.166;4.466;2023-07-09T06:58:59;20.92;;;8.73;;
25972;SDS011;13765;51.166;4.466;2023-07-09T07:01:25;20.48;;;8.57;;
25972;SDS011;13765;51.166;4.466;2023-07-09T07:03:50;21.25;;;8.02;;
25972;SDS011;13765;51.166;4.466;2023-07-09T07:06:18;22.30;;;8.43;;
25972;SDS011;13765;51.166;4.466;2023-07-09T07:08:44;20.02;;;8.77;;
25972;SDS011;13765;51.166;4.466;2023-07-09T07:11:10;19.48;;;8.55;;
25972;SDS011;13765;51.166;4.466;2023-07-09T07:13:36;21.33;;;7.93;;
25972;SDS011;13765;51.166;4.466;2023-07-09T07:16:08;20.35;;;8.50;;
25972;SDS011;13765;51.166;4.466;2023-07-09T07:18:35;21.23;;;8.35;;
25972;SDS011;13765;51.166;4.466;2023-07-09T07:21:01;22.00;;;9.77;;
25972;SDS011;13765;51.166;4.466;2023-07-09T07:23:28;19.30;;;9.07;;
25972;SDS011;13765;51.166;4.466;2023-07-09T07:25:53;20.83;;;9.60;;
25972;SDS011;13765;51.166;4.466;2023-07-09T07:28:21;23.42;;;11.60;;
25972;SDS011;13765;51.166;4.466;2023-07-09T07:30:57;21.48;;;10.30;;
25972;SDS011;13765;51.166;4.466;2023-07-09T07:33:27;23.08;;;10.55;;
25972;SDS011;13765;51.166;4.466;2023-07-09T07:35:52;26.27;;;15.40;;
25972;SDS011;13765;51.166;4.466;2023-07-09T07:38:18;25.08;;;14.60;;
25972;SDS011;13765;51.166;4.466;2023-07-09T07:40:44;30.05;;;16.70;;
25972;SDS011;13765;51.166;4.466;2023-07-09T07:43:10;31.15;;;20.15;;
25972;SDS011;13765;51.166;4.466;2023-07-09T07:45:36;31.27;;;20.00;;
25972;SDS011;13765;51.166;4.466;2023-07-09T07:48:06;31.15;;;19.88;;
25972;SDS011;13765;51.166;4.466;2023-07-09T07:50:31;34.22;;;24.23;;
25972;SDS011;13765;51.166;4.466;2023-07-09T07:52:57;36.95;;;26.20;;
25972;SDS011;13765;51.166;4.466;2023-07-09T07:55:22;39.85;;;30.25;;
25972;SDS011;13765;51.166;4.466;2023-07-09T07:57:48;37.70;;;26.67;;
25972;SDS011;13765;51.166;4.466;2023-07-09T08:00:14;34.17;;;24.60;;
25972;SDS011;13765;51.166;4.466;2023-07-09T08:02:40;36.63;;;25.63;;
25972;SDS011;13765;51.166;4.466;2023-07-09T08:05:06;39.45;;;23.85;;
25972;SDS011;13765;51.166;4.466;2023-07-09T08:07:32;32.85;;;22.15;;
25972;SDS011;13765;51.166;4.466;2023-07-09T08:09:58;31.73;;;21.63;;
25972;SDS011;13765;51.166;4.466;2023-07-09T08:12:23;32.05;;;21.15;;
25972;SDS011;13765;51.166;4.466;2023-07-09T08:14:49;31.15;;;20.95;;
25972;SDS011;13765;51.166;4.466;2023-07-09T08:17:15;32.22;;;20.50;;
25972;SDS011;13765;51.166;4.466;2023-07-09T08:19:47;28.02;;;16.92;;
25972;SDS011;13765;51.166;4.466;2023-07-09T08:22:14;28.13;;;17.45;;
25972;SDS011;13765;51.166;4.466;2023-07-09T08:24:45;30.80;;;19.08;;
25972;SDS011;13765;51.166;4.466;2023-07-09T08:27:11;26.13;;;14.45;;
25972;SDS011;13765;51.166;4.466;2023-07-09T08:29:37;23.30;;;13.02;;
25972;SDS011;13765;51.166;4.466;2023-07-09T08:32:04;23.88;;;13.15;;
25972;SDS011;13765;51.166;4.466;2023-07-09T08:34:31;26.45;;;13.57;;
25972;SDS011;13765;51.166;4.466;2023-07-09T08:36:59;26.65;;;12.20;;
25972;SDS011;13765;51.166;4.466;2023-07-09T08:39:25;27.80;;;12.20;;
25972;SDS011;13765;51.166;4.466;2023-07-09T08:41:54;22.75;;;11.27;;
25972;SDS011;13765;51.166;4.466;2023-07-09T08:47:23;20.00;;;9.40;;
25972;SDS011;13765;51.166;4.466;2023-07-09T08:49:50;22.80;;;10.93;;
25972;SDS011;13765;51.166;4.466;2023-07-09T08:55:20;20.90;;;9.30;;
25972;SDS011;13765;51.166;4.466;2023-07-09T08:57:49;21.55;;;9.63;;
25972;SDS011;13765;51.166;4.466;2023-07-09T09:03:00;22.38;;;8.77;;
25972;SDS011;13765;51.166;4.466;2023-07-09T09:05:28;19.45;;;9.55;;
25972;SDS011;13765;51.166;4.466;2023-07-09T09:07:59;19.30;;;8.23;;
25972;SDS011;13765;51.166;4.466;2023-07-09T09:10:53;18.70;;;8.25;;
25972;SDS011;13765;51.166;4.466;2023-07-09T09:13:35;18.63;;;8.55;;
25972;SDS011;13765;51.166;4.466;2023-07-09T09:16:13;22.15;;;9.25;;
25972;SDS011;13765;51.166;4.466;2023-07-09T09:18:48;16.00;;;7.70;;
25972;SDS011;13765;51.166;4.466;2023-07-09T09:21:17;19.58;;;9.07;;
25972;SDS011;13765;51.166;4.466;2023-07-09T09:23:50;21.45;;;8.98;;
25972;SDS011;13765;51.166;4.466;2023-07-09T09:26:24;20.10;;;9.02;;
25972;SDS011;13765;51.166;4.466;2023-07-09T09:28:52;25.50;;;10.57;;
25972;SDS011;13765;51.166;4.466;2023-07-09T09:31:18;19.58;;;10.13;;
25972;SDS011;13765;51.166;4.466;2023-07-09T09:33:45;19.83;;;8.43;;
25972;SDS011;13765;51.166;4.466;2023-07-09T09:36:16;19.75;;;9.32;;
25972;SDS011;13765;51.166;4.466;2023-07-09T09:38:44;21.00;;;9.73;;
25972;SDS011;13765;51.166;4.466;2023-07-09T09:41:18;22.10;;;9.85;;
25972;SDS011;13765;51.166;4.466;2023-07-09T09:43:49;21.33;;;9.80;;
25972;SDS011;13765;51.166;4.466;2023-07-09T09:46:22;22.80;;;10.93;;
25972;SDS011;13765;51.166;4.466;2023-07-09T09:48:49;21.90;;;11.13;;
25972;SDS011;13765;51.166;4.466;2023-07-09T09:51:18;24.50;;;12.57;;
25972;SDS011;13765;51.166;4.466;2023-07-09T09:53:45;23.58;;;11.43;;
25972;SDS011;13765;51.166;4.466;2023-07-09T09:56:16;20.50;;;10.70;;
25972;SDS011;13765;51.166;4.466;2023-07-09T09:58:54;28.45;;;10.95;;
25972;SDS011;13765;51.166;4.466;2023-07-09T10:01:26;22.45;;;11.32;;
25972;SDS011;13765;51.166;4.466;2023-07-09T10:03:57;22.17;;;11.35;;
25972;SDS011;13765;51.166;4.466;2023-07-09T10:09:20;24.13;;;11.25;;
25972;SDS011;13765;51.166;4.466;2023-07-09T10:12:18;22.15;;;10.40;;
25972;SDS011;13765;51.166;4.466;2023-07-09T10:39:52;17.42;;;5.95;;
25972;SDS011;13765;51.166;4.466;2023-07-09T10:44:57;17.35;;;7.68;;
25972;SDS011;13765;51.166;4.466;2023-07-09T10:47:35;18.70;;;8.30;;
25972;SDS011;13765;51.166;4.466;2023-07-09T10:50:27;22.55;;;9.75;;
25972;SDS011;13765;51.166;4.466;2023-07-09T10:52:59;23.50;;;9.43;;
25972;SDS011;13765;51.166;4.466;2023-07-09T10:55:50;29.95;;;12.93;;
25972;SDS011;13765;51.166;4.466;2023-07-09T10:58:30;21.55;;;10.43;;
25972;SDS011;13765;51.166;4.466;2023-07-09T11:01:16;21.42;;;9.48;;
25972;SDS011;13765;51.166;4.466;2023-07-09T11:03:52;18.55;;;8.27;;
25972;SDS011;13765;51.166;4.466;2023-07-09T11:06:22;20.83;;;8.82;;
25972;SDS011;13765;51.166;4.466;2023-07-09T11:09:09;21.80;;;8.60;;
25972;SDS011;13765;51.166;4.466;2023-07-09T11:11:46;17.92;;;6.55;;
25972;SDS011;13765;51.166;4.466;2023-07-09T11:14:33;15.93;;;6.50;;
25972;SDS011;13765;51.166;4.466;2023-07-09T11:17:14;14.15;;;5.80;;
25972;SDS011;13765;51.166;4.466;2023-07-09T11:19:42;13.98;;;5.07;;
25972;SDS011;13765;51.166;4.466;2023-07-09T11:22:15;12.13;;;5.00;;
25972;SDS011;13765;51.166;4.466;2023-07-09T11:24:51;11.95;;;4.97;;
25972;SDS011;13765;51.166;4.466;2023-07-09T11:27:32;12.13;;;4.05;;
25972;SDS011;13765;51.166;4.466;2023-07-09T11:30:02;11.48;;;4.60;;
25972;SDS011;13765;51.166;4.466;2023-07-09T11:32:46;10.32;;;4.35;;
25972;SDS011;13765;51.166;4.466;2023-07-09T11:35:21;12.73;;;4.45;;
25972;SDS011;13765;51.166;4.466;2023-07-09T11:37:54;12.65;;;4.93;;
25972;SDS011;13765;51.166;4.466;2023-07-09T11:40:32;10.07;;;4.13;;
25972;SDS011;13765;51.166;4.466;2023-07-09T11:42:58;10.15;;;3.97;;
25972;SDS011;13765;51.166;4.466;2023-07-09T11:45:32;10.13;;;4.05;;
25972;SDS011;13765;51.166;4.466;2023-07-09T11:50:51;12.63;;;4.30;;
25972;SDS011;13765;51.166;4.466;2023-07-09T11:56:11;10.98;;;4.05;;
25972;SDS011;13765;51.166;4.466;2023-07-09T11:58:47;11.88;;;4.22;;
25972;SDS011;13765;51.166;4.466;2023-07-09T12:01:21;8.32;;;3.80;;
25972;SDS011;13765;51.166;4.466;2023-07-09T12:04:06;11.45;;;4.03;;
25972;SDS011;13765;51.166;4.466;2023-07-09T12:06:34;9.57;;;4.10;;
25972;SDS011;13765;51.166;4.466;2023-07-09T12:09:04;9.52;;;3.90;;
25972;SDS011;13765;51.166;4.466;2023-07-09T12:11:31;9.65;;;3.92;;
25972;SDS011;13765;51.166;4.466;2023-07-09T12:14:05;11.70;;;4.40;;
25972;SDS011;13765;51.166;4.466;2023-07-09T12:16:43;11.50;;;4.75;;
25972;SDS011;13765;51.166;4.466;2023-07-09T12:19:16;14.43;;;3.83;;
25972;SDS011;13765;51.166;4.466;2023-07-09T12:21:55;13.38;;;4.40;;
25972;SDS011;13765;51.166;4.466;2023-07-09T12:24:27;14.82;;;5.07;;
25972;SDS011;13765;51.166;4.466;2023-07-09T12:26:57;11.30;;;3.80;;
25972;SDS011;13765;51.166;4.466;2023-07-09T12:29:29;14.15;;;4.65;;
25972;SDS011;13765;51.166;4.466;2023-07-09T12:31:56;12.10;;;4.55;;
25972;SDS011;13765;51.166;4.466;2023-07-09T12:34:25;14.07;;;4.78;;
25972;SDS011;13765;51.166;4.466;2023-07-09T12:36:51;15.57;;;4.70;;
25972;SDS011;13765;51.166;4.466;2023-07-09T12:39:23;13.20;;;4.97;;
25972;SDS011;13765;51.166;4.466;2023-07-09T12:41:50;12.13;;;4.67;;
25972;SDS011;13765;51.166;4.466;2023-07-09T12:44:23;17.52;;;5.53;;
25972;SDS011;13765;51.166;4.466;2023-07-09T12:46:50;15.27;;;4.35;;
25972;SDS011;13765;51.166;4.466;2023-07-09T12:49:20;16.02;;;4.30;;
25972;SDS011;13765;51.166;4.466;2023-07-09T12:51:51;14.75;;;5.03;;
25972;SDS011;13765;51.166;4.466;2023-07-09T12:54:19;13.02;;;4.20;;
25972;SDS011;13765;51.166;4.466;2023-07-09T12:56:55;12.65;;;4.13;;
25972;SDS011;13765;51.166;4.466;2023-07-09T13:09:52;13.05;;;3.97;;
25972;SDS011;13765;51.166;4.466;2023-07-09T13:12:28;19.05;;;5.70;;
25972;SDS011;13765;51.166;4.466;2023-07-09T13:14:56;19.55;;;5.95;;
25972;SDS011;13765;51.166;4.466;2023-07-09T13:17:22;16.58;;;6.05;;
25972;SDS011;13765;51.166;4.466;2023-07-09T13:19:49;20.42;;;5.97;;
25972;SDS011;13765;51.166;4.466;2023-07-09T13:22:16;17.50;;;5.97;;
25972;SDS011;13765;51.166;4.466;2023-07-09T13:24:44;12.98;;;5.32;;
25972;SDS011;13765;51.166;4.466;2023-07-09T13:27:14;19.65;;;6.13;;
25972;SDS011;13765;51.166;4.466;2023-07-09T13:29:40;18.20;;;5.95;;
25972;SDS011;13765;51.166;4.466;2023-07-09T13:32:10;17.40;;;5.45;;
25972;SDS011;13765;51.166;4.466;2023-07-09T13:34:40;15.40;;;5.20;;
25972;SDS011;13765;51.166;4.466;2023-07-09T13:37:13;16.05;;;5.15;;
25972;SDS011;13765;51.166;4.466;2023-07-09T13:39:42;21.67;;;5.30;;
25972;SDS011;13765;51.166;4.466;2023-07-09T13:42:11;15.27;;;4.90;;
25972;SDS011;13765;51.166;4.466;2023-07-09T13:44:38;16.38;;;5.63;;
25972;SDS011;13765;51.166;4.466;2023-07-09T13:47:05;17.02;;;5.47;;
25972;SDS011;13765;51.166;4.466;2023-07-09T13:49:33;16.10;;;4.93;;
25972;SDS011;13765;51.166;4.466;2023-07-09T13:51:59;13.63;;;4.72;;
25972;SDS011;13765;51.166;4.466;2023-07-09T13:54:27;13.63;;;4.75;;
25972;SDS011;13765;51.166;4.466;2023-07-09T13:57:00;15.68;;;4.75;;
25972;SDS011;13765;51.166;4.466;2023-07-09T13:59:27;15.00;;;4.35;;
25972;SDS011;13765;51.166;4.466;2023-07-09T14:01:54;15.75;;;5.28;;
25972;SDS011;13765;51.166;4.466;2023-07-09T14:04:22;14.73;;;4.47;;
25972;SDS011;13765;51.166;4.466;2023-07-09T14:06:51;15.93;;;4.90;;
25972;SDS011;13765;51.166;4.466;2023-07-09T14:09:17;17.10;;;4.60;;
25972;SDS011;13765;51.166;4.466;2023-07-09T14:11:47;14.40;;;4.78;;
25972;SDS011;13765;51.166;4.466;2023-07-09T14:16:40;18.52;;;5.35;;
25972;SDS011;13765;51.166;4.466;2023-07-09T14:19:09;16.48;;;5.28;;
25972;SDS011;13765;51.166;4.466;2023-07-09T14:21:44;15.75;;;5.20;;
25972;SDS011;13765;51.166;4.466;2023-07-09T14:24:21;16.42;;;5.15;;
25972;SDS011;13765;51.166;4.466;2023-07-09T14:26:53;15.32;;;4.75;;
25972;SDS011;13765;51.166;4.466;2023-07-09T14:29:21;19.98;;;5.70;;
25972;SDS011;13765;51.166;4.466;2023-07-09T14:31:47;14.48;;;5.03;;
25972;SDS011;13765;51.166;4.466;2023-07-09T14:34:24;18.05;;;6.13;;
25972;SDS011;13765;51.166;4.466;2023-07-09T14:36:54;18.25;;;5.65;;
25972;SDS011;13765;51.166;4.466;2023-07-09T14:39:23;18.60;;;5.47;;
25972;SDS011;13765;51.166;4.466;2023-07-09T14:41:51;14.18;;;4.90;;
25972;SDS011;13765;51.166;4.466;2023-07-09T14:44:30;16.15;;;5.47;;
25972;SDS011;13765;51.166;4.466;2023-07-09T14:46:59;16.60;;;5.82;;
25972;SDS011;13765;51.166;4.466;2023-07-09T14:49:26;24.45;;;6.82;;
25972;SDS011;13765;51.166;4.466;2023-07-09T14:51:53;14.73;;;5.28;;
25972;SDS011;13765;51.166;4.466;2023-07-09T14:56:47;13.95;;;5.40;;
25972;SDS011;13765;51.166;4.466;2023-07-09T14:59:14;17.58;;;5.93;;
25972;SDS011;13765;51.166;4.466;2023-07-09T15:01:40;14.55;;;5.25;;
25972;SDS011;13765;51.166;4.466;2023-07-09T15:06:50;19.50;;;5.55;;
25972;SDS011;13765;51.166;4.466;2023-07-09T15:09:19;13.80;;;5.78;;
25972;SDS011;13765;51.166;4.466;2023-07-09T15:11:46;12.50;;;5.25;;
25972;SDS011;13765;51.166;4.466;2023-07-09T15:14:18;18.80;;;6.38;;
25972;SDS011;13765;51.166;4.466;2023-07-09T15:16:45;15.00;;;5.63;;
25972;SDS011;13765;51.166;4.466;2023-07-09T15:19:13;17.13;;;5.57;;
25972;SDS011;13765;51.166;4.466;2023-07-09T15:21:40;15.48;;;5.40;;
25972;SDS011;13765;51.166;4.466;2023-07-09T15:24:10;14.65;;;5.88;;
25972;SDS011;13765;51.166;4.466;2023-07-09T15:26:43;19.45;;;7.20;;
25972;SDS011;13765;51.166;4.466;2023-07-09T15:29:14;19.15;;;7.43;;
25972;SDS011;13765;51.166;4.466;2023-07-09T15:31:40;22.10;;;9.82;;
25972;SDS011;13765;51.166;4.466;2023-07-09T15:34:06;25.67;;;12.20;;
25972;SDS011;13765;51.166;4.466;2023-07-09T15:36:32;23.48;;;11.35;;
25972;SDS011;13765;51.166;4.466;2023-07-09T15:38:57;27.85;;;12.75;;
25972;SDS011;13765;51.166;4.466;2023-07-09T15:41:23;29.48;;;15.60;;
25972;SDS011;13765;51.166;4.466;2023-07-09T15:43:49;27.17;;;13.50;;
25972;SDS011;13765;51.166;4.466;2023-07-09T15:46:16;28.73;;;13.68;;
25972;SDS011;13765;51.166;4.466;2023-07-09T15:48:44;26.73;;;14.30;;
25972;SDS011;13765;51.166;4.466;2023-07-09T15:51:10;28.23;;;13.32;;